createdAt,value
2019-05-15T00:00:48.019Z,16.53
2019-05-15T00:03:20.614Z,16.37
2019-05-15T00:05:52.037Z,16.35
2019-05-15T00:08:24.511Z,16.22
2019-05-15T00:10:58.080Z,16.19
2019-05-15T00:13:29.666Z,16.23
2019-05-15T00:16:01.728Z,16.07
2019-05-15T00:18:33.384Z,16.00
2019-05-15T00:21:05.138Z,15.85
2019-05-15T00:23:38.720Z,15.80
2019-05-15T00:26:10.939Z,15.81
2019-05-15T00:28:42.788Z,15.97
2019-05-15T00:31:14.958Z,15.99
2019-05-15T00:33:48.248Z,15.85
2019-05-15T00:36:20.309Z,15.87
2019-05-15T00:38:51.968Z,15.73
2019-05-15T00:41:23.726Z,15.52
2019-05-15T00:43:58.557Z,15.50
2019-05-15T00:46:29.983Z,15.54
2019-05-15T00:49:01.840Z,15.58
2019-05-15T00:51:33.803Z,15.55
2019-05-15T00:54:08.285Z,15.49
2019-05-15T00:56:39.784Z,15.51
2019-05-15T00:59:23.198Z,15.53
2019-05-15T01:01:45.108Z,15.42
2019-05-15T01:04:18.749Z,15.50
2019-05-15T01:06:52.657Z,15.48
2019-05-15T01:09:25.429Z,15.48
2019-05-15T01:11:58.715Z,15.68
2019-05-15T01:14:30.371Z,15.61
2019-05-15T01:17:02.139Z,15.50
2019-05-15T01:19:34.095Z,15.48
2019-05-15T01:22:05.640Z,15.71
2019-05-15T01:24:38.922Z,15.57
2019-05-15T01:27:10.606Z,15.49
2019-05-15T01:29:45.190Z,15.50
2019-05-15T01:32:15.952Z,15.60
2019-05-15T01:34:49.031Z,15.55
2019-05-15T01:37:20.689Z,15.64
2019-05-15T01:39:52.378Z,15.63
2019-05-15T01:42:24.106Z,15.71
2019-05-15T01:44:56.071Z,15.84
2019-05-15T01:47:28.169Z,15.75
2019-05-15T01:49:59.895Z,15.62
2019-05-15T01:52:32.009Z,15.76
2019-05-15T01:55:04.885Z,15.57
2019-05-15T01:57:38.391Z,15.54
2019-05-15T02:00:10.489Z,15.53
2019-05-15T02:02:42.680Z,15.45
2019-05-15T02:05:15.150Z,15.45
2019-05-15T02:07:47.892Z,15.42
2019-05-15T02:10:19.479Z,15.42
2019-05-15T02:12:51.132Z,15.60
2019-05-15T02:15:22.889Z,15.68
2019-05-15T02:17:54.747Z,15.66
2019-05-15T02:20:28.954Z,15.64
2019-05-15T02:22:59.810Z,15.70
2019-05-15T02:25:31.251Z,15.77
2019-05-15T02:28:03.165Z,15.92
2019-05-15T02:30:34.786Z,15.88
2019-05-15T02:33:10.079Z,15.89
2019-05-15T02:35:39.967Z,15.83
2019-05-15T02:38:15.379Z,16.04
2019-05-15T02:40:44.561Z,16.20
2019-05-15T02:43:19.015Z,16.45
2019-05-15T02:45:50.845Z,16.45
2019-05-15T02:48:22.502Z,16.54
2019-05-15T02:50:54.964Z,16.47
2019-05-15T02:53:29.923Z,16.51
2019-05-15T02:56:00.838Z,16.51
2019-05-15T02:58:32.392Z,16.45
2019-05-15T03:01:04.456Z,16.38
2019-05-15T03:03:38.749Z,16.35
2019-05-15T03:06:10.205Z,16.47
2019-05-15T03:08:41.770Z,16.51
2019-05-15T03:11:13.767Z,16.71
2019-05-15T03:13:46.108Z,16.73
2019-05-15T03:16:19.384Z,16.93
2019-05-15T03:18:55.265Z,17.21
2019-05-15T03:21:24.147Z,17.30
2019-05-15T03:23:59.252Z,17.59
2019-05-15T03:26:30.088Z,17.76
2019-05-15T03:29:01.980Z,17.91
2019-05-15T03:31:49.424Z,18.11
2019-05-15T03:34:19.293Z,18.24
2019-05-15T03:36:44.948Z,18.43
2019-05-15T03:39:14.435Z,18.15
2019-05-15T03:41:49.539Z,18.25
2019-05-15T03:44:20.057Z,18.29
2019-05-15T03:46:51.754Z,18.62
2019-05-15T03:49:23.506Z,18.86
2019-05-15T03:51:55.305Z,19.00
2019-05-15T03:54:29.313Z,19.22
2019-05-15T03:57:00.214Z,18.75
2019-05-15T03:59:31.781Z,18.71
2019-05-15T04:02:03.970Z,18.67
2019-05-15T04:04:38.629Z,18.51
2019-05-15T04:07:10.009Z,19.00
2019-05-15T04:09:41.460Z,19.36
2019-05-15T04:12:13.229Z,19.50
2019-05-15T04:14:45.284Z,19.37
2019-05-15T04:17:19.721Z,19.05
2019-05-15T04:19:49.927Z,19.28
2019-05-15T04:22:21.786Z,19.39
2019-05-15T04:24:54.879Z,19.35
2019-05-15T04:27:29.012Z,19.66
2019-05-15T04:30:00.741Z,19.85
2019-05-15T04:32:33.110Z,19.42
2019-05-15T04:35:09.217Z,19.47
2019-05-15T04:37:41.295Z,19.81
2019-05-15T04:40:13.507Z,20.00
2019-05-15T04:42:45.462Z,20.22
2019-05-15T04:45:19.453Z,20.46
2019-05-15T04:47:50.725Z,21.08
2019-05-15T04:50:22.276Z,21.13
2019-05-15T04:52:54.393Z,21.34
2019-05-15T04:55:28.974Z,21.11
2019-05-15T04:57:59.714Z,21.13
2019-05-15T05:00:49.698Z,20.91
2019-05-15T05:03:22.240Z,21.50
2019-05-15T05:05:54.016Z,22.03
2019-05-15T05:08:30.386Z,21.84
2019-05-15T05:11:01.727Z,22.26
2019-05-15T05:13:34.619Z,22.10
2019-05-15T05:16:09.219Z,22.38
2019-05-15T05:18:41.674Z,22.12
2019-05-15T05:21:13.566Z,21.87
2019-05-15T05:23:45.476Z,21.76
2019-05-15T05:26:18.517Z,22.32
2019-05-15T05:28:50.279Z,22.10
2019-05-15T05:31:21.927Z,22.76
2019-05-15T05:33:53.786Z,22.91
2019-05-15T05:36:27.900Z,23.17
2019-05-15T05:38:59.555Z,23.25
2019-05-15T05:41:31.324Z,23.68
2019-05-15T05:44:03.587Z,23.71
2019-05-15T05:46:35.036Z,23.96
2019-05-15T05:49:08.076Z,24.22
2019-05-15T05:51:39.777Z,23.98
2019-05-15T05:54:12.247Z,24.04
2019-05-15T05:56:44.019Z,23.54
2019-05-15T05:59:15.705Z,24.22
2019-05-15T06:01:48.547Z,23.45
2019-05-15T06:04:20.201Z,23.13
2019-05-15T06:07:05.910Z,23.85
2019-05-15T06:09:27.652Z,24.12
2019-05-15T06:11:59.264Z,24.50
2019-05-15T06:14:30.816Z,24.26
2019-05-15T06:17:02.469Z,24.11
2019-05-15T06:19:34.430Z,23.77
2019-05-15T06:22:08.592Z,23.21
2019-05-15T06:24:39.279Z,23.69
2019-05-15T06:27:11.036Z,23.56
2019-05-15T06:29:42.995Z,23.44
2019-05-15T06:32:14.446Z,23.65
2019-05-15T06:34:48.368Z,24.17
2019-05-15T06:37:19.845Z,23.92
2019-05-15T06:39:51.567Z,23.19
2019-05-15T06:42:23.076Z,23.53
2019-05-15T06:44:54.466Z,23.99
2019-05-15T06:47:28.336Z,24.19
2019-05-15T06:49:59.105Z,23.83
2019-05-15T06:52:30.770Z,23.44
2019-05-15T06:55:02.623Z,23.74
2019-05-15T06:57:34.580Z,23.93
2019-05-15T07:00:08.426Z,24.55
2019-05-15T07:02:40.758Z,24.08
2019-05-15T07:05:12.628Z,24.32
2019-05-15T07:07:44.167Z,24.71
2019-05-15T07:10:16.017Z,25.18
2019-05-15T07:12:51.002Z,25.48
2019-05-15T07:15:21.078Z,25.40
2019-05-15T07:17:52.534Z,25.14
2019-05-15T07:20:24.376Z,25.14
2019-05-15T07:22:58.444Z,25.20
2019-05-15T07:25:29.409Z,25.46
2019-05-15T07:28:01.098Z,25.50
2019-05-15T07:30:32.752Z,25.61
2019-05-15T07:33:04.302Z,25.60
2019-05-15T07:35:38.473Z,25.66
2019-05-15T07:38:09.556Z,24.92
2019-05-15T07:40:41.113Z,24.47
2019-05-15T07:43:13.077Z,24.50
2019-05-15T07:45:44.917Z,24.09
2019-05-15T07:48:18.480Z,24.02
2019-05-15T07:50:50.037Z,23.83
2019-05-15T07:53:21.847Z,24.91
2019-05-15T07:55:53.510Z,25.84
2019-05-15T07:58:25.053Z,26.31
2019-05-15T08:00:58.984Z,26.20
2019-05-15T08:03:31.134Z,26.27
2019-05-15T08:06:03.269Z,25.52
2019-05-15T08:08:34.949Z,24.65
2019-05-15T08:11:17.517Z,24.43
2019-05-15T08:13:39.904Z,24.64
2019-05-15T08:16:11.856Z,25.29
2019-05-15T08:18:43.409Z,25.49
2019-05-15T08:21:15.112Z,25.40
2019-05-15T08:23:48.434Z,25.50
2019-05-15T08:26:20.323Z,25.36
2019-05-15T08:28:51.892Z,25.50
2019-05-15T08:31:23.731Z,25.28
2019-05-15T08:34:09.092Z,25.12
2019-05-15T08:36:31.271Z,24.98
2019-05-15T08:39:04.752Z,25.04
2019-05-15T08:41:38.835Z,25.08
2019-05-15T08:44:09.989Z,25.02
2019-05-15T08:46:44.302Z,25.18
2019-05-15T08:49:14.942Z,24.81
2019-05-15T08:51:48.635Z,24.67
2019-05-15T08:54:20.398Z,24.88
2019-05-15T08:56:51.976Z,25.01
2019-05-15T08:59:23.710Z,24.95
2019-05-15T09:01:55.684Z,24.82
2019-05-15T09:04:33.890Z,24.68
2019-05-15T09:07:01.253Z,24.38
2019-05-15T09:09:34.016Z,24.38
2019-05-15T09:12:08.254Z,24.94
2019-05-15T09:14:39.891Z,25.21
2019-05-15T09:17:11.958Z,25.03
2019-05-15T09:19:43.658Z,24.69
2019-05-15T09:22:15.686Z,25.09
2019-05-15T09:24:48.867Z,25.17
2019-05-15T09:27:20.616Z,25.29
2019-05-15T09:29:52.482Z,25.47
2019-05-15T09:32:24.237Z,25.17
2019-05-15T09:34:59.003Z,25.34
2019-05-15T09:37:29.389Z,25.58
2019-05-15T09:40:01.355Z,25.64
2019-05-15T09:42:38.711Z,25.74
2019-05-15T09:45:09.786Z,26.00
2019-05-15T09:47:41.294Z,26.21
2019-05-15T09:50:13.052Z,26.17
2019-05-15T09:52:44.751Z,25.78
2019-05-15T09:55:18.003Z,25.66
2019-05-15T09:57:49.701Z,26.01
2019-05-15T10:00:22.519Z,25.99
2019-05-15T10:02:54.449Z,26.09
2019-05-15T10:05:28.001Z,26.34
2019-05-15T10:07:59.490Z,26.19
2019-05-15T10:10:31.350Z,26.46
2019-05-15T10:13:03.415Z,26.53
2019-05-15T10:15:34.970Z,26.42
2019-05-15T10:18:09.734Z,26.65
2019-05-15T10:20:40.126Z,26.74
2019-05-15T10:23:11.913Z,26.30
2019-05-15T10:25:43.838Z,26.90
2019-05-15T10:28:18.662Z,27.06
2019-05-15T10:30:49.756Z,26.23
2019-05-15T10:33:21.878Z,26.34
2019-05-15T10:35:53.321Z,26.55
2019-05-15T10:38:25.385Z,26.93
2019-05-15T10:41:07.964Z,26.97
2019-05-15T10:43:30.029Z,27.34
2019-05-15T10:46:01.698Z,27.01
2019-05-15T10:48:34.565Z,27.27
2019-05-15T10:51:09.762Z,27.41
2019-05-15T10:53:40.597Z,27.53
2019-05-15T10:56:12.314Z,27.60
2019-05-15T10:58:43.745Z,27.86
2019-05-15T11:01:16.081Z,27.42
2019-05-15T11:03:49.540Z,27.57
2019-05-15T11:06:20.761Z,27.38
2019-05-15T11:08:52.623Z,27.57
2019-05-15T11:11:24.073Z,27.58
2019-05-15T11:14:00.267Z,27.54
2019-05-15T11:16:28.947Z,27.30
2019-05-15T11:19:00.679Z,26.91
2019-05-15T11:21:32.640Z,27.06
2019-05-15T11:24:04.398Z,27.29
2019-05-15T11:26:36.051Z,27.13
2019-05-15T11:29:09.662Z,27.25
2019-05-15T11:31:41.099Z,27.00
2019-05-15T11:34:12.855Z,27.02
2019-05-15T11:36:44.521Z,26.91
2019-05-15T11:39:18.252Z,26.12
2019-05-15T11:41:50.096Z,26.32
2019-05-15T11:44:21.732Z,26.57
2019-05-15T11:46:53.494Z,26.43
2019-05-15T11:49:25.041Z,26.30
2019-05-15T11:52:00.674Z,26.30
2019-05-15T11:54:31.220Z,26.53
2019-05-15T11:57:02.869Z,26.51
2019-05-15T11:59:34.837Z,26.56
2019-05-15T12:02:08.535Z,26.42
2019-05-15T12:04:40.497Z,26.36
2019-05-15T12:07:12.255Z,26.32
2019-05-15T12:09:43.703Z,26.20
2019-05-15T12:12:15.153Z,26.45
2019-05-15T12:14:49.614Z,26.39
2019-05-15T12:17:20.100Z,26.13
2019-05-15T12:19:58.408Z,26.42
2019-05-15T12:22:24.920Z,26.54
2019-05-15T12:25:00.147Z,26.65
2019-05-15T12:27:29.511Z,26.66
2019-05-15T12:30:01.371Z,26.29
2019-05-15T12:32:36.830Z,26.45
2019-05-15T12:35:07.873Z,26.59
2019-05-15T13:00:42.104Z,26.76
2019-05-15T13:03:14.373Z,26.95
2019-05-15T13:05:48.394Z,26.83
2019-05-15T13:08:19.729Z,26.72
2019-05-15T13:10:51.184Z,26.43
2019-05-15T13:13:23.143Z,26.40
2019-05-15T13:15:54.806Z,26.46
2019-05-15T13:18:28.453Z,26.34
2019-05-15T13:20:59.809Z,26.39
2019-05-15T13:23:31.627Z,26.09
2019-05-15T13:26:03.793Z,26.36
2019-05-15T13:28:35.728Z,26.45
2019-05-15T13:31:09.173Z,26.13
2019-05-15T13:33:41.090Z,26.45
2019-05-15T13:36:12.437Z,26.59
2019-05-15T13:38:44.188Z,26.73
2019-05-15T13:41:18.935Z,26.59
2019-05-15T13:43:50.159Z,26.77
2019-05-15T13:46:21.945Z,26.87
2019-05-15T13:48:53.985Z,26.30
2019-05-15T13:51:25.843Z,26.11
2019-05-15T13:53:57.811Z,26.40
2019-05-15T13:56:29.464Z,25.98
2019-05-15T13:59:02.348Z,26.09
2019-05-15T14:01:34.363Z,25.91
2019-05-15T14:04:08.579Z,25.97
2019-05-15T14:06:40.894Z,26.21
2019-05-15T14:09:12.449Z,26.35
2019-05-15T14:11:44.409Z,26.17
2019-05-15T14:14:15.767Z,26.30
2019-05-15T14:16:49.131Z,26.23
2019-05-15T14:19:20.805Z,26.34
2019-05-15T14:21:52.565Z,26.37
2019-05-15T14:24:24.628Z,25.97
2019-05-15T14:26:59.146Z,25.79
2019-05-15T14:29:30.089Z,25.96
2019-05-15T14:32:02.767Z,26.05
2019-05-15T14:34:34.526Z,26.11
2019-05-15T14:37:08.525Z,26.25
2019-05-15T14:39:39.188Z,26.16
2019-05-15T14:42:10.822Z,26.05
2019-05-15T14:44:42.574Z,26.07
2019-05-15T14:47:14.237Z,26.06
2019-05-15T14:49:49.277Z,26.18
2019-05-15T14:52:19.399Z,26.03
2019-05-15T14:54:50.841Z,26.01
2019-05-15T14:57:22.696Z,26.25
2019-05-15T14:59:54.480Z,26.26
2019-05-15T15:02:26.732Z,26.18
2019-05-15T15:04:59.471Z,26.16
2019-05-15T15:07:31.978Z,26.20
2019-05-15T15:10:04.920Z,26.13
2019-05-15T15:12:39.177Z,25.95
2019-05-15T15:15:10.709Z,25.85
2019-05-15T15:17:42.693Z,25.84
2019-05-15T15:20:14.864Z,25.91
2019-05-15T15:22:48.596Z,26.02
2019-05-15T15:25:20.219Z,25.83
2019-05-15T15:27:52.076Z,25.93
2019-05-15T15:30:24.043Z,25.87
2019-05-15T15:32:57.613Z,25.94
2019-05-15T15:35:28.998Z,25.70
2019-05-15T15:38:01.571Z,25.67
2019-05-15T15:40:33.322Z,25.74
2019-05-15T15:43:05.396Z,25.80
2019-05-15T15:45:39.016Z,25.81
2019-05-15T15:48:10.047Z,25.75
2019-05-15T15:50:41.578Z,25.53
2019-05-15T15:53:13.698Z,25.55
2019-05-15T15:55:45.611Z,25.56
2019-05-15T15:58:19.712Z,25.57
2019-05-15T16:00:50.327Z,25.50
2019-05-15T16:03:21.750Z,25.46
2019-05-15T16:05:53.331Z,25.35
2019-05-15T16:08:24.819Z,25.38
2019-05-15T16:10:56.186Z,25.31
2019-05-15T16:13:29.199Z,25.33
2019-05-15T16:16:00.913Z,25.47
2019-05-15T16:18:32.520Z,25.32
2019-05-15T16:21:04.027Z,25.11
2019-05-15T16:23:42.677Z,25.22
2019-05-15T16:26:14.050Z,25.19
2019-05-15T16:28:45.483Z,25.08
2019-05-15T16:31:18.630Z,24.92
2019-05-15T16:33:50.346Z,24.79
2019-05-15T16:36:21.873Z,24.68
2019-05-15T16:39:05.320Z,24.61
2019-05-15T16:41:28.838Z,24.56
2019-05-15T16:43:59.781Z,24.36
2019-05-15T16:46:31.285Z,24.35
2019-05-15T16:49:03.010Z,24.20
2019-05-15T16:51:34.444Z,24.16
2019-05-15T16:54:08.429Z,24.12
2019-05-15T16:56:40.243Z,24.11
2019-05-15T16:59:11.948Z,23.98
2019-05-15T17:01:44.101Z,23.91
2019-05-15T17:04:18.031Z,23.82
2019-05-15T17:06:49.461Z,23.66
2019-05-15T17:09:21.868Z,23.51
2019-05-15T17:11:53.821Z,23.44
2019-05-15T17:14:28.807Z,23.32
2019-05-15T17:16:59.585Z,23.24
2019-05-15T17:19:31.086Z,23.08
2019-05-15T17:22:02.544Z,23.01
2019-05-15T17:24:33.929Z,22.87
2019-05-15T17:27:05.488Z,22.77
2019-05-15T17:29:38.510Z,22.64
2019-05-15T17:32:10.028Z,22.60
2019-05-15T17:34:41.429Z,22.57
2019-05-15T17:37:12.795Z,22.50
2019-05-15T17:39:44.227Z,22.33
2019-05-15T17:42:18.209Z,22.24
2019-05-15T17:44:49.694Z,22.20
2019-05-15T17:47:21.013Z,22.13
2019-05-15T17:49:51.600Z,22.04
2019-05-15T17:52:23.149Z,22.20
2019-05-15T17:54:54.944Z,22.04
2019-05-15T17:57:28.458Z,21.89
2019-05-15T17:59:59.875Z,21.86
2019-05-15T18:02:31.930Z,21.85
2019-05-15T18:05:04.958Z,21.83
2019-05-15T18:07:38.849Z,21.76
2019-05-15T18:10:10.423Z,21.97
2019-05-15T18:12:42.016Z,21.78
2019-05-15T18:15:14.071Z,21.63
2019-05-15T18:17:47.921Z,21.58
2019-05-15T18:20:29.440Z,21.46
2019-05-15T18:23:01.790Z,21.35
2019-05-15T18:25:33.252Z,21.74
2019-05-15T18:28:05.046Z,21.48
2019-05-15T18:30:38.858Z,21.41
2019-05-15T18:33:10.177Z,21.28
2019-05-15T18:35:41.706Z,21.29
2019-05-15T18:38:13.083Z,21.24
2019-05-15T18:40:44.544Z,21.16
2019-05-15T18:43:17.986Z,21.12
2019-05-15T18:45:49.424Z,21.11
2019-05-15T18:48:20.848Z,21.21
2019-05-15T18:50:52.124Z,21.23
2019-05-15T18:53:24.006Z,21.36
2019-05-15T18:55:55.529Z,21.44
2019-05-15T18:58:26.993Z,21.32
2019-05-15T19:00:59.315Z,21.12
2019-05-15T19:03:31.271Z,21.13
2019-05-15T19:06:02.964Z,20.94
2019-05-15T19:08:35.381Z,21.13
2019-05-15T19:11:07.044Z,21.09
2019-05-15T19:13:38.944Z,21.32
2019-05-15T19:16:10.693Z,21.01
2019-05-15T19:18:42.358Z,20.96
2019-05-15T19:21:13.902Z,20.98
2019-05-15T19:23:47.346Z,21.01
2019-05-15T19:26:18.519Z,21.13
2019-05-15T19:28:49.170Z,21.27
2019-05-15T19:31:26.618Z,21.12
2019-05-15T19:33:53.729Z,21.33
2019-05-15T19:36:24.335Z,21.08
2019-05-15T19:38:55.473Z,20.81
2019-05-15T19:41:28.865Z,20.72
2019-05-15T19:44:00.894Z,20.60
2019-05-15T19:46:32.470Z,20.53
2019-05-15T19:49:04.225Z,20.46
2019-05-15T19:51:38.111Z,20.40
2019-05-15T19:54:10.196Z,20.33
2019-05-15T19:56:42.836Z,20.31
2019-05-15T19:59:14.493Z,20.30
2019-05-15T20:01:48.480Z,20.07
2019-05-15T20:04:19.500Z,19.97
2019-05-15T20:06:51.040Z,19.88
2019-05-15T20:09:22.563Z,19.83
2019-05-15T20:11:53.918Z,19.83
2019-05-15T20:14:25.528Z,19.80
2019-05-15T20:16:58.918Z,19.88
2019-05-15T20:19:30.773Z,19.81
2019-05-15T20:22:02.459Z,19.84
2019-05-15T20:24:34.468Z,19.90
2019-05-15T20:27:05.149Z,20.21
2019-05-15T20:29:38.293Z,20.37
2019-05-15T20:32:09.689Z,20.39
2019-05-15T20:34:41.182Z,20.47
2019-05-15T20:37:11.843Z,20.53
2019-05-15T20:39:43.062Z,20.41
2019-05-15T20:42:14.472Z,20.44
2019-05-15T20:44:48.419Z,20.57
2019-05-15T20:47:19.427Z,20.59
2019-05-15T20:49:50.724Z,20.68
2019-05-15T20:52:21.858Z,20.56
2019-05-15T20:54:53.261Z,20.43
2019-05-15T20:57:24.703Z,20.39
2019-05-15T20:59:58.562Z,20.33
2019-05-15T21:02:29.952Z,20.29
2019-05-15T21:05:01.426Z,20.23
2019-05-15T21:07:38.096Z,20.21
2019-05-15T21:10:08.578Z,20.11
2019-05-15T21:12:41.445Z,20.09
2019-05-15T21:15:14.323Z,20.06
2019-05-15T21:17:55.128Z,20.12
2019-05-15T21:20:19.399Z,19.91
2019-05-15T21:22:50.904Z,19.76
2019-05-15T21:25:21.550Z,19.72
2019-05-15T21:27:52.651Z,19.62
2019-05-15T21:30:24.115Z,19.56
2019-05-15T21:32:58.090Z,19.59
2019-05-15T21:35:30.574Z,19.56
2019-05-15T21:38:01.953Z,19.53
2019-05-15T21:40:33.511Z,19.61
2019-05-15T21:43:05.088Z,19.64
2019-05-15T21:45:37.643Z,19.55
2019-05-15T21:48:09.722Z,19.61
2019-05-15T21:50:40.397Z,19.63
2019-05-15T21:53:11.619Z,19.53
2019-05-15T21:55:43.232Z,19.50
2019-05-15T21:58:13.913Z,19.57
2019-05-15T22:00:48.582Z,19.58
2019-05-15T22:03:20.963Z,19.62
2019-05-15T22:05:52.556Z,19.62
2019-05-15T22:08:24.417Z,19.47
2019-05-15T22:10:55.973Z,19.26
2019-05-15T22:13:28.620Z,19.10
2019-05-15T22:16:00.742Z,19.00
2019-05-15T22:18:32.340Z,18.93
2019-05-15T22:21:04.005Z,18.91
2019-05-15T22:23:34.629Z,18.80
2019-05-15T22:26:05.942Z,18.74
2019-05-15T22:28:38.629Z,18.80
2019-05-15T22:31:11.440Z,18.76
2019-05-15T22:33:42.930Z,18.78
2019-05-15T22:36:14.577Z,18.84
2019-05-15T22:38:45.248Z,18.81
2019-05-15T22:41:18.765Z,18.83
2019-05-15T22:43:49.320Z,18.82
2019-05-15T22:46:19.964Z,18.79
2019-05-15T22:48:51.085Z,18.74
2019-05-15T22:51:22.690Z,18.67
2019-05-15T22:53:53.627Z,18.60
2019-05-15T22:56:24.770Z,18.49
2019-05-15T22:58:55.440Z,18.42
2019-05-15T23:01:26.721Z,18.39
2019-05-15T23:03:58.577Z,18.38
2019-05-15T23:06:30.155Z,18.37
2019-05-15T23:09:01.672Z,18.39
2019-05-15T23:11:34.620Z,18.37
2019-05-15T23:14:08.158Z,18.38
2019-05-15T23:16:39.289Z,18.31
2019-05-15T23:19:10.624Z,18.31
2019-05-15T23:21:42.075Z,18.29
2019-05-15T23:24:13.861Z,18.36
2019-05-15T23:26:47.658Z,18.44
2019-05-15T23:29:19.213Z,18.50
2019-05-15T23:31:50.871Z,18.49
2019-05-15T23:34:22.431Z,18.44
2019-05-15T23:36:53.977Z,18.20
2019-05-15T23:39:25.545Z,18.05
2019-05-15T23:41:58.463Z,17.99
2019-05-15T23:44:29.890Z,17.85
2019-05-15T23:47:01.244Z,17.78
2019-05-15T23:49:31.754Z,17.99
2019-05-15T23:52:03.105Z,18.14
2019-05-15T23:54:34.639Z,18.11
2019-05-15T23:57:05.254Z,18.13
2019-05-15T23:59:38.292Z,18.14
